Time;durP1;ratioP1;P1;durP2;ratioP2;P2;SDS_P1;SDS_P2;PMS_P1;PMS_P2;Temp;Humidity;BMP_temperature;BMP_pressure;BME280_temperature;BME280_humidity;BME280_pressure;Samples;Min_cycle;Max_cycle;Signal;HPM_P1;HPM_P2
2022/09/04 00:00:09;;;;;;;0.40;0.40;;;;;;;15.13;100.00;99644.91;5089081;28;20701;-58
2022/09/04 00:03:00;;;;;;;0.80;0.80;;;;;;;15.10;100.00;99647.75;5089547;28;20570;-57
2022/09/04 00:05:34;;;;;;;1.07;0.60;;;;;;;15.13;100.00;99652.66;5089047;28;20260;-57
2022/09/04 00:08:36;;;;;;;0.47;0.37;;;;;;;15.10;100.00;99647.75;5088968;28;20221;-58
2022/09/04 00:11:12;;;;;;;0.63;0.60;;;;;;;15.15;100.00;99645.63;5089078;28;20604;-57
2022/09/04 00:13:45;;;;;;;0.40;0.40;;;;;;;15.14;100.00;99638.81;5089131;28;20217;-62
2022/09/04 00:16:18;;;;;;;0.60;0.60;;;;;;;15.14;100.00;99646.53;5088700;28;20218;-63
2022/09/04 00:18:52;;;;;;;1.13;0.70;;;;;;;15.18;100.00;99644.53;5088989;28;20221;-62
2022/09/04 00:21:37;;;;;;;0.80;0.77;;;;;;;15.14;100.00;99654.28;5088933;28;20206;-62
2022/09/04 00:24:08;;;;;;;0.67;0.67;;;;;;;15.10;100.00;99655.47;5088501;28;20234;-57
2022/09/04 00:26:49;;;;;;;0.43;0.43;;;;;;;15.12;100.00;99655.34;5089066;28;20361;-62
2022/09/04 00:29:24;;;;;;;0.67;0.57;;;;;;;15.09;100.00;99656.41;5088646;28;20225;-57
2022/09/04 00:31:54;;;;;;;0.90;0.90;;;;;;;15.06;100.00;99661.81;5088828;28;20219;-62
2022/09/04 00:34:40;;;;;;;0.87;0.80;;;;;;;15.09;100.00;99666.69;5092378;28;20230;-57
2022/09/04 00:37:11;;;;;;;0.67;0.67;;;;;;;14.99;100.00;99667.59;5092508;28;20637;-57
2022/09/04 00:39:44;;;;;;;1.13;1.00;;;;;;;15.02;100.00;99663.00;5092135;28;20322;-57
2022/09/04 00:42:30;;;;;;;0.77;0.77;;;;;;;15.02;100.00;99665.56;5092720;28;20205;-57
2022/09/04 00:45:07;;;;;;;2.27;0.90;;;;;;;15.04;100.00;99676.56;5092399;28;20198;-57
2022/09/04 00:48:10;;;;;;;0.67;0.67;;;;;;;15.13;100.00;99682.75;5092403;28;20218;-57
2022/09/04 00:50:48;;;;;;;1.00;0.90;;;;;;;15.05;100.00;99675.63;5050345;28;20299;-62
2022/09/04 00:53:41;;;;;;;0.73;0.73;;;;;;;15.02;100.00;99683.59;5091943;28;20221;-62
2022/09/04 00:56:30;;;;;;;0.40;0.40;;;;;;;15.06;100.00;99686.75;5092009;28;20205;-62
2022/09/04 00:59:15;;;;;;;1.40;0.93;;;;;;;15.02;100.00;99691.34;5092244;28;20230;-57
2022/09/04 01:01:43;;;;;;;0.80;0.70;;;;;;;15.03;100.00;99698.09;5091537;28;20252;-62
2022/09/04 01:04:36;;;;;;;0.73;0.73;;;;;;;15.08;100.00;99693.41;5091685;28;20222;-57
2022/09/04 01:07:21;;;;;;;0.93;0.90;;;;;;;14.99;100.00;99691.59;5091125;28;20210;-57
2022/09/04 01:10:33;;;;;;;0.53;0.53;;;;;;;14.91;100.00;99704.25;5092291;28;20198;-57
2022/09/04 01:13:07;;;;;;;1.07;0.90;;;;;;;14.94;100.00;99698.84;5091797;28;20214;-57
2022/09/04 01:15:41;;;;;;;0.30;0.30;;;;;;;14.93;100.00;99702.38;5071228;28;20206;-57
2022/09/04 01:18:14;;;;;;;1.20;0.90;;;;;;;14.96;100.00;99702.13;5072062;28;20287;-57
2022/09/04 01:21:06;;;;;;;0.57;0.57;;;;;;;14.84;100.00;99714.22;5091894;28;20577;-62
2022/09/04 01:24:01;;;;;;;0.33;0.33;;;;;;;14.80;100.00;99722.31;5087648;28;20217;-58
2022/09/04 01:26:37;;;;;;;0.83;0.80;;;;;;;14.80;100.00;99724.88;5091214;28;20202;-57
2022/09/04 01:29:21;;;;;;;0.57;0.50;;;;;;;14.79;100.00;99720.69;5090764;28;20217;-62
2022/09/04 01:31:55;;;;;;;0.37;0.37;;;;;;;14.87;100.00;99718.31;5091943;28;20212;-57
2022/09/04 01:34:39;;;;;;;0.63;0.63;;;;;;;14.74;100.00;99718.47;5091537;28;20605;-60
2022/09/04 01:37:20;;;;;;;0.40;0.40;;;;;;;14.67;100.00;99718.13;5091135;28;20252;-62
2022/09/04 01:39:56;;;;;;;0.63;0.57;;;;;;;14.71;100.00;99713.56;5091010;28;20205;-62
2022/09/04 01:42:37;;;;;;;1.30;1.20;;;;;;;14.69;100.00;99710.31;5091071;28;20226;-57
2022/09/04 01:45:05;;;;;;;0.97;0.60;;;;;;;14.66;100.00;99716.50;5090511;28;20665;-62
2022/09/04 01:47:42;;;;;;;0.77;0.77;;;;;;;14.66;100.00;99710.53;5090958;28;20602;-61
2022/09/04 01:50:13;;;;;;;0.63;0.63;;;;;;;14.71;100.00;99700.69;5091193;28;20201;-56
2022/09/04 01:52:48;;;;;;;0.97;0.80;;;;;;;14.80;100.00;99696.56;5090251;28;20229;-57
2022/09/04 01:55:26;;;;;;;1.23;0.67;;;;;;;14.68;100.00;99695.78;5091277;28;20204;-62
2022/09/04 01:58:07;;;;;;;0.53;0.53;;;;;;;14.61;100.00;99687.75;5090954;28;20251;-57
2022/09/04 02:00:41;;;;;;;0.53;0.53;;;;;;;14.53;100.00;99684.97;5090964;28;20216;-61
2022/09/04 02:03:17;;;;;;;1.13;0.83;;;;;;;14.50;100.00;99685.16;5091405;28;20603;-57
2022/09/04 02:05:59;;;;;;;0.33;0.33;;;;;;;14.46;100.00;99683.78;5090906;28;20341;-57
2022/09/04 02:08:46;;;;;;;0.37;0.37;;;;;;;14.49;100.00;99688.69;5090895;28;20225;-62
2022/09/04 02:11:17;;;;;;;0.40;0.40;;;;;;;14.27;100.00;99680.06;5091273;28;20204;-62
2022/09/04 02:14:01;;;;;;;0.50;0.50;;;;;;;14.34;100.00;99684.72;5090075;28;20227;-57
2022/09/04 02:16:33;;;;;;;0.73;0.73;;;;;;;14.38;100.00;99686.94;5090745;28;20193;-57
2022/09/04 02:19:10;;;;;;;0.40;0.40;;;;;;;14.43;100.00;99689.19;5090102;28;20232;-62
2022/09/04 02:21:43;;;;;;;0.50;0.50;;;;;;;14.33;100.00;99689.06;5090296;28;20206;-57
2022/09/04 02:24:19;;;;;;;0.70;0.60;;;;;;;14.35;100.00;99683.81;5090749;28;20236;-63
2022/09/04 02:26:52;;;;;;;0.60;0.60;;;;;;;14.21;100.00;99690.84;5090134;28;20196;-62
2022/09/04 02:29:27;;;;;;;1.83;0.97;;;;;;;14.23;100.00;99694.13;5090334;28;20620;-62
2022/09/04 02:32:01;;;;;;;1.23;0.70;;;;;;;14.33;100.00;99689.06;5090443;28;20205;-56
2022/09/04 02:34:37;;;;;;;0.87;0.60;;;;;;;14.33;100.00;99689.06;5090450;28;20716;-57
2022/09/04 02:37:13;;;;;;;0.77;0.63;;;;;;;14.24;100.00;99695.75;5089779;28;20274;-62
2022/09/04 02:39:54;;;;;;;0.90;0.73;;;;;;;14.27;100.00;99690.34;5090726;28;20201;-57
2022/09/04 02:42:31;;;;;;;0.97;0.83;;;;;;;14.33;100.00;99683.91;5090200;28;20206;-62
2022/09/04 02:45:13;;;;;;;0.63;0.63;;;;;;;14.34;100.00;99679.59;5090127;28;20200;-57
2022/09/04 02:47:47;;;;;;;1.50;0.93;;;;;;;14.26;100.00;99673.28;5090593;28;20237;-62
2022/09/04 02:50:28;;;;;;;0.77;0.70;;;;;;;14.30;100.00;99673.06;5090040;28;20221;-57
2022/09/04 02:53:10;;;;;;;1.33;0.97;;;;;;;14.34;100.00;99675.28;5090272;28;20653;-62
2022/09/04 02:55:57;;;;;;;0.77;0.77;;;;;;;14.31;100.00;99674.69;5069171;28;20194;-57
2022/09/04 02:58:38;;;;;;;0.80;0.80;;;;;;;14.45;100.00;99671.84;5072526;28;20285;-62
2022/09/04 03:01:12;;;;;;;1.07;0.93;;;;;;;14.42;100.00;99672.91;5089694;28;20719;-62
2022/09/04 03:03:47;;;;;;;0.63;0.60;;;;;;;14.35;100.00;99676.09;5090162;28;20608;-63
2022/09/04 03:06:22;;;;;;;1.03;0.93;;;;;;;14.48;100.00;99671.59;5089372;28;20197;-61
2022/09/04 03:08:56;;;;;;;0.80;0.80;;;;;;;14.41;100.00;99675.59;5089923;28;20209;-57
2022/09/04 03:11:30;;;;;;;1.17;0.63;;;;;;;14.45;100.00;99677.00;5089492;28;20205;-57
2022/09/04 03:14:04;;;;;;;0.63;0.60;;;;;;;14.50;100.00;99675.69;5088950;28;20232;-62
2022/09/04 03:16:39;;;;;;;0.63;0.63;;;;;;;14.46;100.00;99673.50;5090251;28;20202;-57
2022/09/04 03:19:17;;;;;;;0.53;0.53;;;;;;;14.45;100.00;99677.00;5089600;28;20674;-57
2022/09/04 03:21:52;;;;;;;0.50;0.50;;;;;;;14.52;100.00;99683.34;5089252;28;20257;-62
2022/09/04 03:24:25;;;;;;;1.20;1.07;;;;;;;14.40;100.00;99679.13;5089329;28;20630;-57
2022/09/04 03:26:55;;;;;;;0.40;0.40;;;;;;;14.40;100.00;99684.28;5089337;28;20204;-62
2022/09/04 03:29:35;;;;;;;1.50;1.17;;;;;;;14.48;100.00;99687.84;5089251;28;20248;-57
2022/09/04 03:32:16;;;;;;;2.77;0.70;;;;;;;14.50;100.00;99685.16;5089566;28;20262;-62
2022/09/04 03:34:51;;;;;;;0.80;0.80;;;;;;;14.45;100.00;99692.44;5088986;28;20196;-57
2022/09/04 03:37:30;;;;;;;0.73;0.73;;;;;;;14.47;100.00;99691.38;5089328;28;20220;-57
2022/09/04 03:40:08;;;;;;;0.70;0.70;;;;;;;14.52;100.00;99693.63;5089502;28;20767;-57
2022/09/04 03:42:50;;;;;;;0.40;0.40;;;;;;;14.56;100.00;99702.72;5088959;28;20576;-62
2022/09/04 03:45:25;;;;;;;0.93;0.57;;;;;;;14.57;100.00;99691.47;5089678;28;20221;-57
2022/09/04 03:48:07;;;;;;;0.87;0.80;;;;;;;14.66;100.00;99701.06;5089616;28;20221;-57
2022/09/04 03:50:44;;;;;;;0.90;0.90;;;;;;;14.69;100.00;99705.97;5089271;28;20194;-62
2022/09/04 03:53:20;;;;;;;0.93;0.90;;;;;;;14.70;100.00;99697.31;5089500;28;20711;-62
2022/09/04 03:56:04;;;;;;;0.33;0.33;;;;;;;14.70;100.00;99707.59;5088992;28;20197;-57
2022/09/04 03:58:44;;;;;;;1.30;0.40;;;;;;;14.73;100.00;99705.72;5088351;28;20325;-62
2022/09/04 04:01:23;;;;;;;0.97;0.90;;;;;;;14.75;100.00;99703.81;5089018;28;20590;-57
2022/09/04 04:04:26;;;;;;;1.30;1.00;;;;;;;14.79;100.00;99710.38;5088915;28;20228;-57
2022/09/04 04:07:06;;;;;;;1.30;0.97;;;;;;;14.80;100.00;99709.44;5089578;28;20197;-57
2022/09/04 04:09:54;;;;;;;0.67;0.43;;;;;;;14.79;100.00;99707.81;5092926;28;20668;-62
2022/09/04 04:12:38;;;;;;;1.07;0.97;;;;;;;14.77;100.00;99723.38;5092653;28;20213;-57
2022/09/04 04:15:16;;;;;;;0.57;0.57;;;;;;;14.77;100.00;99717.41;5092513;28;20213;-57
2022/09/04 04:18:05;;;;;;;1.17;1.07;;;;;;;14.79;100.00;99720.69;5092397;28;20631;-62
2022/09/04 04:20:41;;;;;;;0.50;0.50;;;;;;;14.82;100.00;99731.53;5092312;28;20224;-57
2022/09/04 04:23:46;;;;;;;0.80;0.77;;;;;;;14.88;100.00;99733.63;5092309;28;20618;-57
2022/09/04 04:26:21;;;;;;;0.73;0.73;;;;;;;14.87;100.00;99736.34;5092310;28;20251;-57
2022/09/04 04:29:19;;;;;;;0.40;0.40;;;;;;;14.86;100.00;99732.13;5092076;28;20217;-57
2022/09/04 04:32:12;;;;;;;0.90;0.70;;;;;;;14.83;100.00;99737.50;5092685;28;20202;-62
2022/09/04 04:34:58;;;;;;;0.53;0.47;;;;;;;14.78;100.00;99740.47;5092610;28;20662;-62
2022/09/04 04:37:38;;;;;;;0.80;0.80;;;;;;;14.80;100.00;99743.72;5092865;28;20226;-62
2022/09/04 04:40:15;;;;;;;0.73;0.60;;;;;;;14.79;100.00;99746.44;5092702;28;20201;-62
2022/09/04 04:42:52;;;;;;;0.90;0.90;;;;;;;14.81;100.00;99750.53;5092094;28;20309;-57
2022/09/04 04:48:42;;;;;;;0.60;0.60;;;;;;;14.85;100.00;99761.38;5092190;28;20235;-57
2022/09/04 04:51:25;;;;;;;0.60;0.57;;;;;;;14.86;100.00;99763.00;5092286;28;20197;-62
2022/09/04 04:54:02;;;;;;;0.67;0.67;;;;;;;14.84;100.00;99757.19;5092425;28;20788;-57
2022/09/04 04:56:44;;;;;;;0.50;0.50;;;;;;;14.81;100.00;99760.00;5091892;28;20197;-62
2022/09/04 04:59:23;;;;;;;0.40;0.40;;;;;;;14.85;100.00;99771.69;5091371;28;20238;-62
2022/09/04 05:02:06;;;;;;;1.67;0.53;;;;;;;14.76;100.00;99772.41;5091855;28;20198;-57
2022/09/04 05:04:44;;;;;;;0.87;0.87;;;;;;;14.77;100.00;99781.75;5091551;28;20289;-63
2022/09/04 05:07:21;;;;;;;0.47;0.47;;;;;;;14.85;100.00;99787.13;5091578;28;20727;-57
2022/09/04 05:09:56;;;;;;;1.33;0.67;;;;;;;14.82;100.00;99787.38;5091649;28;20205;-62
2022/09/04 05:12:36;;;;;;;1.23;1.13;;;;;;;14.87;100.00;99793.78;5091436;28;20217;-62
2022/09/04 05:15:11;;;;;;;0.90;0.90;;;;;;;14.92;100.00;99796.00;5091777;28;20208;-57
2022/09/04 05:17:46;;;;;;;1.37;0.87;;;;;;;14.95;100.00;99803.47;5090787;28;20286;-57
2022/09/04 05:20:36;;;;;;;0.90;0.70;;;;;;;14.98;100.00;99805.84;5091076;28;20654;-58
2022/09/04 05:23:14;;;;;;;0.97;0.70;;;;;;;14.96;100.00;99810.28;5091441;28;20214;-62
2022/09/04 05:25:50;;;;;;;1.17;0.80;;;;;;;15.11;100.00;99806.47;5091157;28;20214;-56
2022/09/04 05:28:27;;;;;;;1.20;1.10;;;;;;;15.08;100.00;99817.03;5091066;28;20815;-57
2022/09/04 05:31:06;;;;;;;0.83;0.67;;;;;;;15.13;100.00;99825.22;5091882;28;20194;-57
2022/09/04 05:33:40;;;;;;;1.63;0.80;;;;;;;15.15;100.00;99838.78;5091021;28;20229;-57
2022/09/04 05:36:17;;;;;;;0.77;0.67;;;;;;;15.25;100.00;99841.44;5091364;28;20198;-62
2022/09/04 05:38:55;;;;;;;0.93;0.87;;;;;;;15.24;100.00;99844.13;5091139;28;20220;-62
2022/09/04 05:41:36;;;;;;;0.93;0.87;;;;;;;15.33;100.00;99848.56;5090899;28;20209;-62
2022/09/04 05:44:16;;;;;;;0.53;0.53;;;;;;;15.41;100.00;99841.03;5090956;28;20225;-57
2022/09/04 05:47:01;;;;;;;2.20;0.90;;;;;;;15.48;100.00;99852.50;5090943;28;20203;-59
2022/09/04 05:49:42;;;;;;;1.30;1.20;;;;;;;15.53;100.00;99855.53;5091234;28;20195;-62
2022/09/04 05:52:35;;;;;;;0.77;0.77;;;;;;;15.60;100.00;99848.94;5090785;28;20198;-62
2022/09/04 05:55:30;;;;;;;0.77;0.70;;;;;;;15.62;100.00;99844.47;5087914;28;20206;-57
2022/09/04 05:58:25;;;;;;;1.53;1.27;;;;;;;15.66;100.00;99842.44;5090546;28;20260;-58
2022/09/04 06:01:01;;;;;;;1.30;1.20;;;;;;;15.69;100.00;99844.00;5090656;28;20269;-57
2022/09/04 06:03:54;;;;;;;1.90;0.73;;;;;;;15.72;100.00;99847.13;5090513;28;20218;-62
2022/09/04 06:06:30;;;;;;;1.30;0.97;;;;;;;15.71;100.00;99847.28;5090358;28;20950;-62
2022/09/04 06:09:26;;;;;;;0.70;0.70;;;;;;;15.81;100.00;99848.97;5091024;28;20634;-57
2022/09/04 06:12:19;;;;;;;0.97;0.97;;;;;;;15.74;100.00;99841.88;5089924;28;20214;-63
2022/09/04 06:15:06;;;;;;;1.33;1.07;;;;;;;15.77;100.00;99841.63;5090540;28;20195;-62
2022/09/04 06:17:54;;;;;;;1.60;1.00;;;;;;;15.74;100.00;99847.03;5090196;28;20235;-62
2022/09/04 06:20:35;;;;;;;0.73;0.73;;;;;;;15.71;100.00;99853.25;5090123;28;20730;-62
2022/09/04 06:23:27;;;;;;;2.00;1.37;;;;;;;15.75;100.00;99854.63;5089545;28;20221;-58
2022/09/04 06:26:16;;;;;;;1.40;0.73;;;;;;;15.71;100.00;99852.44;5089610;28;20206;-58
2022/09/04 06:29:15;;;;;;;1.73;1.30;;;;;;;15.72;100.00;99854.06;5090241;28;20223;-57
2022/09/04 06:32:06;;;;;;;1.20;1.10;;;;;;;15.75;100.00;99853.81;5089832;28;20205;-57
2022/09/04 06:34:59;;;;;;;1.20;1.10;;;;;;;15.74;100.00;99854.75;5089820;28;20198;-57
2022/09/04 06:37:36;;;;;;;1.10;1.00;;;;;;;15.81;100.00;99845.56;5089890;28;20234;-62
2022/09/04 06:40:18;;;;;;;1.23;1.00;;;;;;;15.89;100.00;99835.44;5089682;28;20233;-62
2022/09/04 06:42:58;;;;;;;0.93;0.80;;;;;;;16.03;100.00;99824.81;5089794;28;20737;-62
2022/09/04 06:45:34;;;;;;;1.43;1.00;;;;;;;16.06;100.00;99834.06;5089787;28;20691;-57
2022/09/04 06:48:13;;;;;;;1.10;1.00;;;;;;;15.98;100.00;99823.56;5089912;28;20228;-62
2022/09/04 06:50:52;;;;;;;1.37;1.27;;;;;;;16.17;100.00;99827.97;5089902;28;20206;-57
2022/09/04 06:53:31;;;;;;;1.10;1.00;;;;;;;16.27;100.00;99824.50;5090137;28;20225;-57
2022/09/04 06:56:10;;;;;;;1.00;0.90;;;;;;;16.30;100.00;99815.69;5089616;28;20207;-58
2022/09/04 06:58:51;;;;;;;0.70;0.70;;;;;;;16.30;100.00;99813.13;5090000;28;20229;-57
2022/09/04 07:01:27;;;;;;;0.73;0.73;;;;;;;16.33;100.00;99812.03;5090458;28;20232;-63
2022/09/04 07:04:05;;;;;;;0.73;0.73;;;;;;;16.49;100.00;99820.94;5089935;28;20415;-56
2022/09/04 07:06:47;;;;;;;0.57;0.57;;;;;;;16.70;100.00;99820.88;5089950;28;20201;-63
2022/09/04 07:09:19;;;;;;;1.50;0.97;;;;;;;16.73;100.00;99819.78;5089561;28;20224;-57
2022/09/04 07:12:16;;;;;;;0.93;0.93;;;;;;;16.75;100.00;99828.19;5089851;28;20557;-57
2022/09/04 07:15:10;;;;;;;1.07;1.00;;;;;;;16.78;100.00;99824.56;5089885;28;20201;-57
2022/09/04 07:17:42;;;;;;;1.50;1.20;;;;;;;16.74;100.00;99826.56;5089309;28;20233;-62
2022/09/04 07:20:20;;;;;;;0.93;0.87;;;;;;;16.71;100.00;99826.84;5088667;28;20214;-62
2022/09/04 07:23:16;;;;;;;2.43;1.00;;;;;;;16.81;100.00;99826.88;5089666;28;20694;-61
2022/09/04 07:25:49;;;;;;;1.40;0.87;;;;;;;16.82;100.00;99824.19;5088716;28;20202;-63
2022/09/04 07:28:35;;;;;;;1.67;1.33;;;;;;;16.79;99.74;99819.28;5086731;28;20306;-58
2022/09/04 07:31:05;;;;;;;0.70;0.70;;;;;;;16.83;100.00;99825.81;5087025;28;20198;-57
2022/09/04 07:33:51;;;;;;;1.43;1.20;;;;;;;16.88;100.00;99823.66;5088694;28;20221;-57
2022/09/04 07:36:25;;;;;;;1.27;1.17;;;;;;;17.14;100.00;99828.31;5086821;28;20200;-58
2022/09/04 07:39:01;;;;;;;2.43;1.60;;;;;;;17.15;99.68;99824.78;5088857;28;20236;-64
2022/09/04 07:41:39;;;;;;;1.00;0.90;;;;;;;17.23;98.65;99837.84;5087571;28;20200;-64
2022/09/04 07:44:13;;;;;;;1.20;1.10;;;;;;;17.30;98.40;99833.75;5092612;28;20214;-63
2022/09/04 07:46:46;;;;;;;1.00;0.90;;;;;;;17.26;98.23;99834.97;5091286;28;20205;-64
2022/09/04 07:49:22;;;;;;;1.77;1.00;;;;;;;17.25;97.32;99835.94;5091383;28;20226;-66
2022/09/04 07:51:59;;;;;;;1.60;1.17;;;;;;;17.45;98.42;99828.16;5088926;28;20672;-63
2022/09/04 07:54:46;;;;;;;1.33;1.13;;;;;;;17.68;98.92;99846.81;5091507;28;20230;-63
2022/09/04 07:57:39;;;;;;;3.17;1.67;;;;;;;18.00;97.56;99838.75;5087657;28;20222;-63
2022/09/04 08:00:09;;;;;;;1.40;1.03;;;;;;;18.36;95.13;99847.50;5085017;28;20219;-63
2022/09/04 08:02:56;;;;;;;1.73;1.27;;;;;;;18.90;96.62;99845.06;5089360;28;20221;-63
2022/09/04 08:05:27;;;;;;;2.43;0.90;;;;;;;19.00;90.27;99858.81;5089169;28;20180;-63
2022/09/04 08:08:14;;;;;;;1.43;1.10;;;;;;;19.08;89.33;99858.06;5086457;28;20210;-62
2022/09/04 08:10:59;;;;;;;1.83;1.70;;;;;;;18.86;89.53;99861.88;5093357;28;20646;-59
2022/09/04 08:13:41;;;;;;;2.63;1.77;;;;;;;18.84;90.90;99866.38;5092315;28;20280;-58
2022/09/04 08:16:16;;;;;;;1.90;0.90;;;;;;;18.68;91.03;99872.19;5091979;28;20198;-63
2022/09/04 08:19:24;;;;;;;1.30;1.10;;;;;;;18.99;93.62;99867.53;5091182;28;20294;-60
2022/09/04 08:21:53;;;;;;;1.23;1.13;;;;;;;19.03;89.32;99876.66;5091858;28;20922;-64
2022/09/04 08:24:59;;;;;;;1.00;0.90;;;;;;;19.44;91.39;99884.81;5090086;28;20225;-64
2022/09/04 08:27:50;;;;;;;1.33;1.23;;;;;;;19.63;89.33;99883.84;5079568;28;20219;-60
2022/09/04 08:30:20;;;;;;;2.20;1.40;;;;;;;19.92;87.97;99882.81;5091710;28;20233;-61
2022/09/04 08:33:21;;;;;;;1.90;1.20;;;;;;;20.15;85.60;99893.50;5090865;28;20305;-61
2022/09/04 08:35:56;;;;;;;2.27;1.67;;;;;;;19.92;85.71;99894.00;5089959;28;20282;-63
2022/09/04 08:38:47;;;;;;;1.57;1.40;;;;;;;20.18;87.29;99898.38;5089213;28;20706;-60
2022/09/04 08:42:09;;;;;;;1.77;1.30;;;;;;;20.61;84.79;99888.91;5090839;28;20214;-61
2022/09/04 08:45:22;;;;;;;1.93;1.20;;;;;;;20.94;83.00;99880.28;5028830;28;20199;-62
2022/09/04 08:48:39;;;;;;;2.90;1.57;;;;;;;21.13;80.80;99880.97;5089529;28;20232;-62
2022/09/04 08:51:39;;;;;;;1.60;1.10;;;;;;;20.89;79.23;99874.72;5090094;28;20285;-61
2022/09/04 08:54:30;;;;;;;1.70;1.20;;;;;;;21.14;83.45;99870.38;5083893;28;20223;-62
2022/09/04 08:57:17;;;;;;;1.10;1.00;;;;;;;21.54;81.89;99863.63;5089578;28;20212;-63
2022/09/04 09:00:05;;;;;;;1.20;1.10;;;;;;;21.67;79.28;99870.94;5087917;28;20247;-63
2022/09/04 09:03:23;;;;;;;0.97;0.93;;;;;;;21.68;79.49;99867.38;5088988;28;20724;-63
2022/09/04 09:06:38;;;;;;;1.00;0.90;;;;;;;21.94;80.62;99867.19;5086886;28;20212;-64
2022/09/04 09:09:43;;;;;;;2.87;1.83;;;;;;;22.03;81.20;99879.22;5089655;28;20228;-62
2022/09/04 09:12:50;;;;;;;1.00;0.93;;;;;;;21.81;77.84;99872.88;5088905;28;20212;-62
2022/09/04 09:15:40;;;;;;;1.80;1.20;;;;;;;21.64;77.93;99876.47;5090008;28;20259;-61
2022/09/04 09:18:26;;;;;;;1.27;1.17;;;;;;;21.77;77.45;99869.00;5088514;28;20252;-62
2022/09/04 09:21:01;;;;;;;1.30;1.10;;;;;;;21.92;81.48;99876.94;5089357;28;20628;-62
2022/09/04 09:23:40;;;;;;;1.57;1.10;;;;;;;22.00;77.09;99876.94;5089447;28;20240;-62
2022/09/04 09:26:33;;;;;;;1.43;0.90;;;;;;;22.25;75.51;99880.34;5086996;28;20204;-62
2022/09/04 09:29:38;;;;;;;1.40;1.00;;;;;;;21.82;78.63;99873.72;5073198;28;20265;-62
2022/09/04 09:32:56;;;;;;;1.30;1.20;;;;;;;21.52;78.81;99868.19;5081921;28;20205;-66
2022/09/04 09:36:08;;;;;;;1.27;1.10;;;;;;;21.40;77.28;99859.88;5006933;28;20615;-61
2022/09/04 09:39:04;;;;;;;1.17;1.00;;;;;;;21.61;76.74;99869.00;5006681;28;20253;-61
2022/09/04 09:41:50;;;;;;;1.93;1.20;;;;;;;21.62;78.25;99866.25;5081294;28;20212;-62
2022/09/04 09:44:40;;;;;;;1.77;1.07;;;;;;;21.64;76.58;99866.06;5088029;28;20217;-61
2022/09/04 09:47:35;;;;;;;1.90;1.20;;;;;;;21.83;75.82;99870.94;5088384;28;20212;-65
2022/09/04 09:50:27;;;;;;;1.53;1.10;;;;;;;21.64;78.89;99876.47;5084848;28;20632;-61
2022/09/04 09:53:27;;;;;;;1.60;1.07;;;;;;;21.60;79.47;99870.78;5088917;28;20225;-61
2022/09/04 09:56:25;;;;;;;0.90;0.90;;;;;;;21.41;77.19;99871.94;5054812;28;20213;-60
2022/09/04 09:59:31;;;;;;;1.37;1.20;;;;;;;21.36;77.96;99873.34;5087268;28;20228;-64
2022/09/04 10:02:32;;;;;;;1.10;1.00;;;;;;;21.15;77.36;99879.03;5047774;28;20197;-62
2022/09/04 10:05:38;;;;;;;0.60;0.60;;;;;;;21.37;79.45;99875.81;5088521;28;20202;-64
2022/09/04 10:08:36;;;;;;;0.67;0.67;;;;;;;21.69;75.21;99876.81;5087246;28;20404;-64
2022/09/04 10:11:22;;;;;;;0.67;0.67;;;;;;;22.05;79.00;99884.25;5070324;28;20213;-63
2022/09/04 10:14:13;;;;;;;1.07;0.80;;;;;;;22.21;73.85;99894.69;5071085;28;20655;-63
2022/09/04 10:17:26;;;;;;;1.10;0.80;;;;;;;22.19;73.85;99891.41;5070404;28;20210;-64
2022/09/04 10:20:28;;;;;;;1.07;0.80;;;;;;;21.77;72.78;99889.81;5012891;28;20244;-64
2022/09/04 10:23:31;;;;;;;0.57;0.57;;;;;;;21.66;73.73;99890.16;5039494;28;20234;-62
2022/09/04 10:26:14;;;;;;;0.83;0.73;;;;;;;21.58;74.35;99892.75;5057743;28;20209;-63
2022/09/04 10:29:28;;;;;;;0.60;0.60;;;;;;;21.81;74.60;99892.91;5091023;28;20245;-62
2022/09/04 10:32:08;;;;;;;0.70;0.70;;;;;;;21.69;73.23;99887.22;5090573;28;20209;-61
2022/09/04 10:34:57;;;;;;;1.13;1.03;;;;;;;21.72;73.68;99889.50;5090907;28;20193;-61
2022/09/04 10:37:43;;;;;;;1.30;1.00;;;;;;;21.83;75.88;99894.38;5087384;28;20607;-63
2022/09/04 10:40:37;;;;;;;0.57;0.57;;;;;;;22.18;74.50;99900.22;5088802;28;20229;-63
2022/09/04 10:43:38;;;;;;;0.83;0.77;;;;;;;22.12;72.31;99895.66;5090166;28;20330;-64
2022/09/04 10:46:11;;;;;;;0.70;0.70;;;;;;;22.08;73.82;99899.56;5064068;28;20275;-64
2022/09/04 10:49:15;;;;;;;0.82;0.70;;;;;;;22.18;74.08;99900.22;5088925;28;20222;-63
2022/09/04 10:51:57;;;;;;;1.10;1.00;;;;;;;22.09;71.74;99895.97;5086237;28;20209;-63
2022/09/04 10:54:54;;;;;;;0.60;0.60;;;;;;;22.11;72.08;99888.81;5087907;28;20232;-63
2022/09/04 10:57:44;;;;;;;1.00;0.90;;;;;;;22.25;72.53;99890.78;5088726;28;20658;-65
2022/09/04 11:00:14;;;;;;;0.98;0.80;;;;;;;21.97;73.26;99887.69;5085537;28;20685;-65
2022/09/04 11:03:32;;;;;;;1.37;1.00;;;;;;;22.52;72.63;99881.72;5087708;28;20222;-65
2022/09/04 11:06:46;;;;;;;0.70;0.70;;;;;;;22.63;69.70;99880.56;5072539;28;20230;-65
2022/09/04 11:09:29;;;;;;;0.55;0.55;;;;;;;22.92;70.03;99866.06;5086987;28;20214;-65
2022/09/04 11:12:16;;;;;;;1.20;0.85;;;;;;;22.94;71.01;99858.88;5087610;28;20213;-65
2022/09/04 11:15:09;;;;;;;0.57;0.57;;;;;;;23.17;68.38;99864.94;5085251;28;20194;-66
2022/09/04 11:18:18;;;;;;;0.75;0.60;;;;;;;22.99;69.63;99867.03;5086429;28;20282;-66
2022/09/04 11:21:19;;;;;;;0.60;0.60;;;;;;;22.92;68.94;99866.06;5049892;28;20269;-65
2022/09/04 11:24:24;;;;;;;0.90;0.82;;;;;;;23.00;70.94;99858.22;5088340;28;20781;-65
2022/09/04 11:27:27;;;;;;;0.68;0.68;;;;;;;22.86;69.10;99851.09;5086214;28;20210;-65
2022/09/04 11:30:10;;;;;;;1.05;0.70;;;;;;;22.82;71.31;99854.03;5083720;28;20213;-65
2022/09/04 11:33:02;;;;;;;0.82;0.82;;;;;;;22.95;67.09;99850.09;5086737;28;21345;-65
2022/09/04 11:35:54;;;;;;;0.77;0.77;;;;;;;23.11;71.53;99834.34;5085576;28;20194;-65
2022/09/04 11:39:11;;;;;;;0.98;0.82;;;;;;;23.46;70.21;99829.53;5083559;28;20237;-66
2022/09/04 11:42:02;;;;;;;1.00;0.95;;;;;;;23.19;68.53;99834.28;5040838;28;20226;-65
2022/09/04 11:44:46;;;;;;;0.85;0.85;;;;;;;23.04;68.37;99843.88;5086374;28;20191;-66
2022/09/04 11:47:42;;;;;;;0.75;0.75;;;;;;;22.82;68.05;99841.00;5089583;28;20206;-64
2022/09/04 11:50:33;;;;;;;1.08;1.00;;;;;;;22.75;70.24;99837.47;5088692;28;20206;-65
2022/09/04 11:53:26;;;;;;;1.27;0.95;;;;;;;22.91;71.05;99838.38;5089813;28;20338;-64
2022/09/04 11:56:23;;;;;;;1.30;0.77;;;;;;;23.29;69.41;99836.66;5088369;28;20198;-63
2022/09/04 11:59:23;;;;;;;1.08;1.02;;;;;;;23.43;64.78;99842.91;5076596;28;20273;-65
2022/09/04 12:02:18;;;;;;;1.42;0.90;;;;;;;23.38;66.87;99837.41;5052221;28;20227;-63
2022/09/04 12:05:03;;;;;;;0.98;0.80;;;;;;;23.59;67.02;99827.13;5068773;28;20277;-64
2022/09/04 12:07:46;;;;;;;0.98;0.88;;;;;;;23.83;66.52;99823.50;5068686;28;20231;-64
2022/09/04 12:10:48;;;;;;;0.70;0.70;;;;;;;23.60;64.81;99813.09;5068677;28;20711;-64
2022/09/04 12:13:56;;;;;;;0.93;0.90;;;;;;;23.27;64.22;99808.16;5024967;28;20416;-64
2022/09/04 12:16:57;;;;;;;1.00;0.90;;;;;;;23.42;66.82;99820.44;5034996;28;20579;-65
2022/09/04 12:19:57;;;;;;;0.65;0.65;;;;;;;23.57;67.16;99829.09;5068492;28;20257;-64
2022/09/04 12:22:49;;;;;;;1.45;1.00;;;;;;;;;;5065648;28;20230;-63
2022/09/04 12:25:42;;;;;;;0.80;0.80;;;;;;;23.79;63.32;99831.84;4994909;28;20208;-64
2022/09/04 12:28:38;;;;;;;1.05;1.00;;;;;;;23.39;66.85;99833.84;5075088;28;20234;-63
2022/09/04 12:31:19;;;;;;;0.80;0.80;;;;;;;23.17;67.23;99828.44;5092768;28;20209;-64
2022/09/04 12:34:22;;;;;;;1.20;1.02;;;;;;;22.83;65.48;99829.63;5092673;28;20638;-63
2022/09/04 12:37:26;;;;;;;1.63;1.23;;;;;;;22.80;67.29;99822.09;5092375;28;20205;-63
2022/09/04 12:40:28;;;;;;;1.33;1.23;;;;;;;23.28;68.09;99820.19;5090825;28;20202;-62
2022/09/04 12:43:05;;;;;;;1.60;1.30;;;;;;;23.56;68.55;99811.00;5087767;28;20731;-65
2022/09/04 12:45:43;;;;;;;1.17;1.00;;;;;;;23.60;67.85;99815.69;5071938;28;20187;-65
2022/09/04 12:48:18;;;;;;;0.68;0.68;;;;;;;23.48;67.76;99819.72;5071395;28;20226;-62
2022/09/04 12:50:56;;;;;;;1.27;1.17;;;;;;;23.35;67.18;99819.50;5071657;28;20191;-63
2022/09/04 12:53:45;;;;;;;0.80;0.80;;;;;;;23.17;67.63;99818.00;5071475;28;20229;-67
2022/09/04 12:56:21;;;;;;;0.73;0.73;;;;;;;23.08;67.17;99802.59;5071993;28;20658;-65